Time;durP1;ratioP1;P1;durP2;ratioP2;P2;SDS_P1;SDS_P2;PMS_P1;PMS_P2;Temp;Humidity;BMP_temperature;BMP_pressure;BME280_temperature;BME280_humidity;BME280_pressure;Samples;Min_cycle;Max_cycle;Signal;HPM_P1;HPM_P2
2023/10/24 00:01:45;;;;;;;6.38;2.40;;;;;;;;;;5106073;28;20062;-68
2023/10/24 00:04:12;;;;;;;4.70;2.17;;;;;;;;;;5105844;28;20054;-68
2023/10/24 00:06:39;;;;;;;3.97;1.90;;;;;;;;;;5097977;28;20050;-68
2023/10/24 00:09:06;;;;;;;5.35;1.90;;;;;;;;;;5102112;28;20048;-67
2023/10/24 00:11:33;;;;;;;5.03;1.75;;;;;;;;;;5097478;28;20055;-68
2023/10/24 00:14:01;;;;;;;4.05;1.50;;;;;;;;;;5092517;28;20519;-68
2023/10/24 00:16:27;;;;;;;3.22;1.52;;;;;;;;;;5104849;28;20050;-68
2023/10/24 00:18:54;;;;;;;2.20;1.60;;;;;;;;;;5096488;28;20048;-68
2023/10/24 00:21:21;;;;;;;2.20;1.35;;;;;;;;;;5099733;28;20044;-68
2023/10/24 00:23:47;;;;;;;2.28;1.50;;;;;;;;;;5105525;28;20052;-68
2023/10/24 00:26:14;;;;;;;3.22;1.70;;;;;;;;;;5099583;28;20428;-68
2023/10/24 00:28:40;;;;;;;2.38;1.80;;;;;;;;;;5103543;28;20040;-68
2023/10/24 00:31:08;;;;;;;3.17;2.08;;;;;;;;;;5099489;28;20040;-68
2023/10/24 00:33:35;;;;;;;3.05;1.65;;;;;;;;;;5107555;28;20040;-68
2023/10/24 00:36:02;;;;;;;4.18;1.90;;;;;;;;;;5096619;28;20500;-68
2023/10/24 00:38:29;;;;;;;4.53;2.08;;;;;;;;;;5095917;28;20416;-68
2023/10/24 00:40:55;;;;;;;2.95;1.52;;;;;;;;;;5100167;28;20047;-68
2023/10/24 00:43:22;;;;;;;2.95;1.40;;;;;;;;;;5096693;28;20044;-68
2023/10/24 00:45:48;;;;;;;1.88;1.17;;;;;;;;;;5096517;28;20488;-68
2023/10/24 00:48:16;;;;;;;3.08;1.17;;;;;;;;;;5104176;28;20040;-68
2023/10/24 00:50:43;;;;;;;2.50;1.55;;;;;;;;;;5096665;28;20051;-68
2023/10/24 00:53:10;;;;;;;3.55;1.45;;;;;;;;;;5095887;28;20043;-68
2023/10/24 00:55:38;;;;;;;1.75;1.30;;;;;;;;;;5101184;28;20044;-68
2023/10/24 00:58:07;;;;;;;1.50;1.25;;;;;;;;;;5102393;28;20385;-68
2023/10/24 01:00:36;;;;;;;2.38;1.35;;;;;;;;;;5097342;28;20052;-68
2023/10/24 01:03:03;;;;;;;2.05;1.50;;;;;;;;;;5096408;28;20047;-68
2023/10/24 01:05:32;;;;;;;1.60;1.20;;;;;;;;;;5103611;28;20051;-68
2023/10/24 01:07:59;;;;;;;1.52;1.20;;;;;;;;;;5100440;28;20492;-68
2023/10/24 01:10:25;;;;;;;1.85;1.30;;;;;;;;;;5107192;28;20635;-68
2023/10/24 01:12:52;;;;;;;2.55;1.40;;;;;;;;;;5107618;28;20044;-68
2023/10/24 01:15:19;;;;;;;1.75;1.08;;;;;;;;;;5096702;28;20083;-67
2023/10/24 01:17:49;;;;;;;2.80;1.02;;;;;;;;;;5098405;28;20043;-68
2023/10/24 01:20:16;;;;;;;0.80;0.80;;;;;;;;;;5092740;28;20043;-68
2023/10/24 01:22:44;;;;;;;1.67;1.20;;;;;;;;;;5098780;28;20044;-68
2023/10/24 01:25:13;;;;;;;3.28;1.10;;;;;;;;;;5097574;28;20058;-69
2023/10/24 01:27:42;;;;;;;2.15;1.17;;;;;;;;;;5095196;28;20393;-68
2023/10/24 01:30:10;;;;;;;2.47;1.13;;;;;;;;;;5098535;28;20448;-68
2023/10/24 01:32:37;;;;;;;1.08;0.95;;;;;;;;;;5104790;28;20078;-68
2023/10/24 01:35:04;;;;;;;3.42;1.10;;;;;;;;;;5099627;28;20128;-68
2023/10/24 01:37:30;;;;;;;2.03;1.10;;;;;;;;;;5094854;28;20440;-68
2023/10/24 01:39:58;;;;;;;1.73;0.80;;;;;;;;;;5100210;28;20418;-67
2023/10/24 01:42:25;;;;;;;2.30;0.95;;;;;;;;;;5103360;28;20046;-68
2023/10/24 01:44:51;;;;;;;2.83;1.05;;;;;;;;;;5098006;28;20063;-68
2023/10/24 01:47:18;;;;;;;1.13;0.95;;;;;;;;;;5096641;28;20053;-68
2023/10/24 01:49:44;;;;;;;1.00;1.00;;;;;;;;;;5093254;28;20047;-68
2023/10/24 01:52:11;;;;;;;1.50;0.82;;;;;;;;;;5096528;28;20093;-68
2023/10/24 01:54:38;;;;;;;3.17;1.10;;;;;;;;;;5095487;28;20131;-68
2023/10/24 01:57:06;;;;;;;2.22;1.10;;;;;;;;;;5091120;28;20044;-68
2023/10/24 01:59:32;;;;;;;4.18;1.45;;;;;;;;;;5096471;28;20506;-68
2023/10/24 02:01:59;;;;;;;2.97;1.05;;;;;;;;;;5095556;28;20360;-67
2023/10/24 02:04:25;;;;;;;3.00;1.10;;;;;;;;;;5101536;28;20420;-68
2023/10/24 02:06:52;;;;;;;1.85;0.80;;;;;;;;;;5106530;28;20492;-68
2023/10/24 02:09:18;;;;;;;1.70;0.82;;;;;;;;;;5104104;28;20424;-68
2023/10/24 02:11:45;;;;;;;3.63;0.88;;;;;;;;;;5097909;28;20427;-68
2023/10/24 02:14:13;;;;;;;2.25;0.80;;;;;;;;;;5108761;28;20047;-68
2023/10/24 02:16:39;;;;;;;1.63;0.90;;;;;;;;;;5093998;28;20048;-68
2023/10/24 02:19:06;;;;;;;3.80;1.15;;;;;;;;;;5092044;28;20050;-68
2023/10/24 02:21:32;;;;;;;1.48;0.98;;;;;;;;;;5095586;28;20047;-68
2023/10/24 02:23:59;;;;;;;2.72;1.10;;;;;;;;;;5095231;28;20404;-68
2023/10/24 02:26:26;;;;;;;2.17;1.02;;;;;;;;;;5098652;28;20044;-68
2023/10/24 02:28:52;;;;;;;1.98;1.10;;;;;;;;;;5098437;28;20039;-68
2023/10/24 02:31:20;;;;;;;2.97;1.15;;;;;;;;;;5095109;28;20410;-68
2023/10/24 02:33:47;;;;;;;1.23;1.00;;;;;;;;;;5095222;28;20423;-68
2023/10/24 02:36:14;;;;;;;0.95;0.90;;;;;;;;;;5109121;28;20044;-68
2023/10/24 02:38:40;;;;;;;2.05;1.20;;;;;;;;;;5105739;28;20508;-68
2023/10/24 02:41:07;;;;;;;1.25;0.90;;;;;;;;;;5097944;28;20044;-68
2023/10/24 02:43:34;;;;;;;1.30;1.20;;;;;;;;;;5102725;28;20048;-68
2023/10/24 02:46:04;;;;;;;3.63;1.42;;;;;;;;;;5102304;28;20051;-68
2023/10/24 02:48:32;;;;;;;2.40;1.25;;;;;;;;;;5106340;28;20457;-68
2023/10/24 02:50:59;;;;;;;1.30;1.20;;;;;;;;;;5105633;28;20044;-68
2023/10/24 02:53:26;;;;;;;1.25;1.00;;;;;;;;;;5098092;28;20064;-68
2023/10/24 02:55:53;;;;;;;1.50;1.30;;;;;;;;;;5095254;28;20044;-68
2023/10/24 02:58:20;;;;;;;3.40;1.50;;;;;;;;;;5109987;28;20048;-68
2023/10/24 03:00:46;;;;;;;3.08;1.30;;;;;;;;;;5099254;28;20422;-68
2023/10/24 03:03:13;;;;;;;2.75;1.23;;;;;;;;;;5096384;28;20044;-68
2023/10/24 03:05:41;;;;;;;1.67;1.20;;;;;;;;;;5099847;28;20044;-68
2023/10/24 03:08:07;;;;;;;1.75;1.38;;;;;;;;;;5099058;28;20415;-68
2023/10/24 03:10:40;;;;;;;1.45;1.17;;;;;;;;;;5099498;28;20419;-68
2023/10/24 03:13:07;;;;;;;3.67;1.25;;;;;;;;;;5098803;28;20397;-68
2023/10/24 03:15:34;;;;;;;1.60;1.10;;;;;;;;;;5103836;28;20058;-68
2023/10/24 03:18:01;;;;;;;2.85;1.30;;;;;;;;;;5101242;28;20051;-68
2023/10/24 03:20:27;;;;;;;2.08;1.17;;;;;;;;;;5101642;28;20047;-67
2023/10/24 03:22:55;;;;;;;2.28;0.95;;;;;;;;;;5102577;28;20050;-68
2023/10/24 03:25:23;;;;;;;1.98;1.30;;;;;;;;;;5099345;28;20044;-68
2023/10/24 03:27:52;;;;;;;3.17;1.30;;;;;;;;;;5099727;28;20062;-68
2023/10/24 03:30:18;;;;;;;1.70;1.30;;;;;;;;;;5097387;28;20046;-68
2023/10/24 03:32:45;;;;;;;1.52;1.02;;;;;;;;;;5099220;28;20044;-68
2023/10/24 03:35:12;;;;;;;2.38;1.40;;;;;;;;;;5104198;28;20049;-68
2023/10/24 03:37:38;;;;;;;2.10;1.30;;;;;;;;;;5100575;28;20130;-67
2023/10/24 03:40:08;;;;;;;1.58;1.23;;;;;;;;;;5100450;28;20046;-68
2023/10/24 03:42:35;;;;;;;1.20;1.10;;;;;;;;;;5100869;28;20050;-68
2023/10/24 03:45:01;;;;;;;1.63;1.00;;;;;;;;;;5097162;28;20058;-68
2023/10/24 03:47:28;;;;;;;2.42;1.02;;;;;;;;;;5100392;28;20044;-68
2023/10/24 03:49:54;;;;;;;1.55;1.20;;;;;;;;;;5109608;28;20040;-68
2023/10/24 03:52:21;;;;;;;2.47;1.17;;;;;;;;;;5101167;28;20054;-68
2023/10/24 03:54:48;;;;;;;2.80;1.23;;;;;;;;;;5100714;28;20052;-68
2023/10/24 03:57:15;;;;;;;1.70;0.90;;;;;;;;;;5103876;28;20046;-68
2023/10/24 03:59:42;;;;;;;2.00;1.10;;;;;;;;;;5103636;28;20095;-68
2023/10/24 04:02:09;;;;;;;1.67;1.13;;;;;;;;;;5100867;28;20429;-68
2023/10/24 04:04:35;;;;;;;1.05;0.90;;;;;;;;;;5104795;28;20043;-67
2023/10/24 04:07:04;;;;;;;1.27;1.00;;;;;;;;;;5099729;28;20040;-68
2023/10/24 04:09:31;;;;;;;1.90;1.00;;;;;;;;;;5096907;28;20052;-68
2023/10/24 04:11:58;;;;;;;1.27;0.88;;;;;;;;;;5101733;28;20062;-68
2023/10/24 04:14:25;;;;;;;2.05;1.00;;;;;;;;;;5104742;28;20051;-68
2023/10/24 04:16:52;;;;;;;1.52;0.80;;;;;;;;;;5093551;28;20419;-68
2023/10/24 04:19:19;;;;;;;1.27;1.17;;;;;;;;;;5099960;28;20040;-68
2023/10/24 04:21:45;;;;;;;2.33;1.00;;;;;;;;;;5098314;28;20043;-68
2023/10/24 04:24:12;;;;;;;2.38;1.20;;;;;;;;;;5102869;28;20415;-68
2023/10/24 04:26:39;;;;;;;1.98;1.00;;;;;;;;;;5102425;28;20321;-68
2023/10/24 04:29:05;;;;;;;1.48;1.02;;;;;;;;;;5108830;28;20407;-68
2023/10/24 04:31:33;;;;;;;1.70;1.10;;;;;;;;;;5095936;28;20053;-68
2023/10/24 04:34:00;;;;;;;1.83;1.13;;;;;;;;;;5093466;28;20044;-68
2023/10/24 04:36:26;;;;;;;4.85;1.20;;;;;;;;;;5096863;28;20058;-68
2023/10/24 04:38:53;;;;;;;1.38;0.85;;;;;;;;;;5100099;28;20419;-68
2023/10/24 04:41:19;;;;;;;4.50;0.82;;;;;;;;;;5104979;28;20427;-68
2023/10/24 04:43:46;;;;;;;2.58;1.00;;;;;;;;;;5099513;28;20510;-67
2023/10/24 04:46:12;;;;;;;2.30;1.05;;;;;;;;;;5103681;28;20055;-67
2023/10/24 04:48:40;;;;;;;1.60;0.88;;;;;;;;;;5101133;28;20055;-68
2023/10/24 04:51:22;;;;;;;;;;;;;;;;;;5072465;28;20048;-68
2023/10/24 04:53:48;;;;;;;1.88;1.20;;;;;;;;;;5093061;28;19927;-68
2023/10/24 04:56:15;;;;;;;1.52;1.05;;;;;;;;;;5103042;28;20048;-68
2023/10/24 04:58:41;;;;;;;2.50;1.10;;;;;;;;;;5093933;28;20044;-68
2023/10/24 05:01:08;;;;;;;1.98;1.25;;;;;;;;;;5096215;28;20048;-68
2023/10/24 05:03:36;;;;;;;2.05;1.15;;;;;;;;;;5101175;28;20040;-68
2023/10/24 05:06:05;;;;;;;2.35;1.13;;;;;;;;;;5099403;28;20054;-68
2023/10/24 05:08:31;;;;;;;2.15;1.25;;;;;;;;;;5096777;28;20126;-68
2023/10/24 05:10:58;;;;;;;1.45;1.10;;;;;;;;;;5095548;28;20048;-68
2023/10/24 05:13:25;;;;;;;2.25;1.27;;;;;;;;;;5100129;28;20048;-68
2023/10/24 05:15:51;;;;;;;1.75;1.00;;;;;;;;;;5102958;28;20447;-68
2023/10/24 05:18:18;;;;;;;1.73;1.15;;;;;;;;;;5100643;28;20050;-68
2023/10/24 05:20:44;;;;;;;1.02;0.85;;;;;;;;;;5103286;28;20044;-68
2023/10/24 05:23:12;;;;;;;1.77;1.20;;;;;;;;;;5101321;28;20044;-68
2023/10/24 05:25:39;;;;;;;3.53;1.20;;;;;;;;;;5099818;28;20563;-68
2023/10/24 05:28:05;;;;;;;1.80;0.90;;;;;;;;;;5097374;28;20051;-68
2023/10/24 05:30:32;;;;;;;3.97;1.10;;;;;;;;;;5103285;28;20040;-68
2023/10/24 05:32:59;;;;;;;1.90;1.25;;;;;;;;;;5107351;28;20043;-68
2023/10/24 05:35:25;;;;;;;1.40;1.13;;;;;;;;;;5097486;28;20500;-68
2023/10/24 05:37:52;;;;;;;1.85;1.27;;;;;;;;;;5095133;28;20072;-68
2023/10/24 05:40:20;;;;;;;1.65;1.30;;;;;;;;;;5093746;28;20044;-68
2023/10/24 05:42:47;;;;;;;1.45;1.20;;;;;;;;;;5092307;28;20044;-68
2023/10/24 05:45:13;;;;;;;2.25;1.30;;;;;;;;;;5098779;28;20043;-68
2023/10/24 05:47:40;;;;;;;2.60;1.30;;;;;;;;;;5102064;28;20050;-68
2023/10/24 05:50:07;;;;;;;4.30;1.33;;;;;;;;;;5099154;28;20044;-68
2023/10/24 05:52:34;;;;;;;1.85;1.23;;;;;;;;;;5101993;28;20050;-68
2023/10/24 05:55:00;;;;;;;4.47;1.60;;;;;;;;;;5098859;28;20052;-68
2023/10/24 05:57:30;;;;;;;2.47;1.38;;;;;;;;;;5098795;28;20050;-68
2023/10/24 05:59:57;;;;;;;3.40;1.52;;;;;;;;;;5091508;28;20526;-68
2023/10/24 06:02:23;;;;;;;2.72;1.45;;;;;;;;;;5092199;28;20485;-68
2023/10/24 06:04:50;;;;;;;3.13;1.38;;;;;;;;;;5099331;28;20040;-68
2023/10/24 06:07:17;;;;;;;2.15;1.50;;;;;;;;;;5095566;28;20040;-68
2023/10/24 06:09:43;;;;;;;4.13;1.98;;;;;;;;;;5095973;28;20048;-68
2023/10/24 06:12:10;;;;;;;3.25;1.80;;;;;;;;;;5098717;28;20043;-68
2023/10/24 06:14:38;;;;;;;6.22;2.30;;;;;;;;;;5096007;28;20046;-68
2023/10/24 06:17:04;;;;;;;3.80;1.92;;;;;;;;;;5102579;28;20121;-68
2023/10/24 06:19:33;;;;;;;2.60;1.60;;;;;;;;;;5100800;28;20045;-68
2023/10/24 06:21:59;;;;;;;3.00;1.83;;;;;;;;;;5093733;28;20097;-68
2023/10/24 06:24:26;;;;;;;4.70;1.98;;;;;;;;;;5098707;28;20047;-68
2023/10/24 06:26:52;;;;;;;6.68;2.70;;;;;;;;;;5098381;28;20062;-68
2023/10/24 06:29:19;;;;;;;4.47;2.40;;;;;;;;;;5102755;28;20249;-68
2023/10/24 06:31:47;;;;;;;3.38;1.85;;;;;;;;;;5109912;28;20043;-68
2023/10/24 06:34:14;;;;;;;2.55;1.77;;;;;;;;;;5102605;28;20048;-68
2023/10/24 06:36:40;;;;;;;3.33;1.77;;;;;;;;;;5107113;28;20055;-68
2023/10/24 06:39:07;;;;;;;3.42;2.05;;;;;;;;;;5107957;28;20040;-68
2023/10/24 06:41:34;;;;;;;4.88;2.53;;;;;;;;;;5099417;28;20488;-68
2023/10/24 06:44:00;;;;;;;4.10;2.30;;;;;;;;;;5106991;28;20066;-68
2023/10/24 06:46:27;;;;;;;3.13;2.13;;;;;;;;;;5106914;28;20424;-68
2023/10/24 06:48:55;;;;;;;2.97;2.45;;;;;;;;;;5101463;28;20165;-68
2023/10/24 06:51:21;;;;;;;6.47;2.30;;;;;;;;;;5103124;28;20040;-68
2023/10/24 06:53:48;;;;;;;4.78;2.80;;;;;;;;;;5107477;28;20048;-68
2023/10/24 06:56:15;;;;;;;4.93;2.13;;;;;;;;;;5107836;28;20047;-68
2023/10/24 06:58:41;;;;;;;5.32;1.88;;;;;;;;;;5095514;28;20040;-68
2023/10/24 07:01:08;;;;;;;6.07;1.98;;;;;;;;;;5103917;28;20067;-68
2023/10/24 07:03:35;;;;;;;5.10;2.20;;;;;;;;;;5099665;28;20039;-68
2023/10/24 07:06:03;;;;;;;10.65;2.80;;;;;;;;;;5102135;28;20048;-68
2023/10/24 07:08:30;;;;;;;6.63;2.20;;;;;;;;;;5103353;28;20116;-68
2023/10/24 07:10:57;;;;;;;5.60;2.30;;;;;;;;;;5102792;28;20048;-67
2023/10/24 07:13:24;;;;;;;5.70;2.55;;;;;;;;;;5096064;28;20072;-67
2023/10/24 07:15:50;;;;;;;5.70;2.22;;;;;;;;;;5101142;28;20440;-67
2023/10/24 07:18:17;;;;;;;8.90;2.50;;;;;;;;;;5102498;28;20410;-67
2023/10/24 07:20:44;;;;;;;6.07;2.45;;;;;;;;;;5102746;28;20044;-67
2023/10/24 07:23:11;;;;;;;4.00;2.13;;;;;;;;;;5095551;28;20622;-68
2023/10/24 07:25:38;;;;;;;5.50;2.40;;;;;;;;;;5108166;27;20055;-68
2023/10/24 07:28:05;;;;;;;4.00;2.25;;;;;;;;;;5103570;28;20039;-68
2023/10/24 07:30:32;;;;;;;6.40;2.58;;;;;;;;;;5100601;28;20043;-67
2023/10/24 07:32:58;;;;;;;10.18;2.58;;;;;;;;;;5103825;28;20048;-68
2023/10/24 07:35:25;;;;;;;5.47;2.42;;;;;;;;;;5102616;28;20048;-67
2023/10/24 07:37:53;;;;;;;6.75;2.38;;;;;;;;;;5106521;28;20048;-67
2023/10/24 07:40:21;;;;;;;9.38;2.97;;;;;;;;;;5103621;28;20074;-67
2023/10/24 07:42:47;;;;;;;7.43;3.10;;;;;;;;;;5101130;28;20079;-68
2023/10/24 07:45:14;;;;;;;7.38;2.80;;;;;;;;;;5100448;28;20048;-67
2023/10/24 07:47:41;;;;;;;7.25;3.05;;;;;;;;;;5100949;28;20054;-67
2023/10/24 07:50:09;;;;;;;6.05;2.42;;;;;;;;;;5098253;28;20048;-67
2023/10/24 07:52:35;;;;;;;5.65;2.60;;;;;;;;;;5096795;28;20082;-67
2023/10/24 07:55:02;;;;;;;5.80;2.30;;;;;;;;;;5094111;28;20055;-68
2023/10/24 07:57:30;;;;;;;4.05;2.08;;;;;;;;;;5092165;28;20062;-67
2023/10/24 07:59:57;;;;;;;4.75;2.50;;;;;;;;;;5096410;28;20107;-68
2023/10/24 08:02:24;;;;;;;4.38;2.63;;;;;;;;;;5097284;28;20040;-66
2023/10/24 08:04:50;;;;;;;7.30;3.00;;;;;;;;;;5095537;28;20071;-67
2023/10/24 08:07:17;;;;;;;7.88;3.03;;;;;;;;;;5105788;28;20054;-69
2023/10/24 08:09:43;;;;;;;8.85;3.38;;;;;;;;;;5094861;28;20048;-65
2023/10/24 08:12:11;;;;;;;8.35;3.22;;;;;;;;;;5103328;28;20050;-65
2023/10/24 08:14:39;;;;;;;5.32;3.15;;;;;;;;;;5105683;27;20056;-65
2023/10/24 08:17:06;;;;;;;7.88;3.13;;;;;;;;;;5096779;28;20048;-65
2023/10/24 08:19:32;;;;;;;6.88;3.13;;;;;;;;;;5097461;28;20070;-65
2023/10/24 08:21:59;;;;;;;6.05;3.00;;;;;;;;;;5097357;28;20050;-66
2023/10/24 08:24:25;;;;;;;5.95;2.78;;;;;;;;;;5099097;28;20044;-66
2023/10/24 08:26:52;;;;;;;6.00;3.05;;;;;;;;;;5104299;28;20051;-65
2023/10/24 08:29:18;;;;;;;5.95;3.05;;;;;;;;;;5097768;28;20067;-65
2023/10/24 08:31:46;;;;;;;6.55;3.78;;;;;;;;;;5096993;28;20604;-65
2023/10/24 08:34:13;;;;;;;6.57;2.85;;;;;;;;;;5109625;28;20484;-66
2023/10/24 08:36:39;;;;;;;5.43;2.97;;;;;;;;;;5097475;28;20492;-65
2023/10/24 08:39:06;;;;;;;6.85;2.83;;;;;;;;;;5097067;28;20044;-65
2023/10/24 08:41:33;;;;;;;8.35;2.65;;;;;;;;;;5093403;28;20044;-66
2023/10/24 08:44:01;;;;;;;5.13;3.13;;;;;;;;;;5103179;28;20058;-66
2023/10/24 08:46:27;;;;;;;8.93;3.42;;;;;;;;;;5099517;28;20047;-65
2023/10/24 08:48:56;;;;;;;6.15;3.03;;;;;;;;;;5104116;28;20048;-66
2023/10/24 08:51:23;;;;;;;4.68;2.85;;;;;;;;;;5107349;28;20523;-65
2023/10/24 08:53:50;;;;;;;5.95;2.78;;;;;;;;;;5101235;28;20048;-67
2023/10/24 08:56:16;;;;;;;5.53;2.70;;;;;;;;;;5099400;28;20052;-66
2023/10/24 08:58:45;;;;;;;3.22;2.50;;;;;;;;;;5101098;28;20423;-65
2023/10/24 09:01:12;;;;;;;6.82;2.80;;;;;;;;;;5102750;28;20054;-68
2023/10/24 09:03:39;;;;;;;5.78;2.53;;;;;;;;;;5091348;28;20068;-67
2023/10/24 09:06:08;;;;;;;4.45;2.35;;;;;;;;;;5101390;28;20065;-68
2023/10/24 09:08:35;;;;;;;4.75;2.33;;;;;;;;;;5094805;28;20070;-67
2023/10/24 09:11:01;;;;;;;2.83;2.20;;;;;;;;;;5091973;28;20052;-69
2023/10/24 09:13:28;;;;;;;7.40;2.58;;;;;;;;;;5100297;28;20058;-66
2023/10/24 09:16:08;;;;;;;5.07;2.00;;;;;;;;;;5111170;28;20479;-68
2023/10/24 09:18:36;;;;;;;2.90;2.20;;;;;;;;;;5098851;28;20044;-67
2023/10/24 09:21:04;;;;;;;4.28;1.95;;;;;;;;;;5102799;28;20048;-66
2023/10/24 09:23:32;;;;;;;3.20;1.95;;;;;;;;;;5108115;28;20559;-67
2023/10/24 09:26:02;;;;;;;5.82;2.33;;;;;;;;;;5088580;28;20048;-67
2023/10/24 09:28:29;;;;;;;3.65;2.00;;;;;;;;;;5100251;28;20043;-67
2023/10/24 09:30:57;;;;;;;6.47;2.10;;;;;;;;;;5098877;28;20055;-69
2023/10/24 09:33:25;;;;;;;3.53;2.10;;;;;;;;;;5108299;28;20055;-66
2023/10/24 09:35:52;;;;;;;4.30;2.00;;;;;;;;;;5105191;28;20051;-66
2023/10/24 09:38:20;;;;;;;4.32;2.33;;;;;;;;;;5098673;28;20048;-66
2023/10/24 09:40:48;;;;;;;3.33;2.00;;;;;;;;;;5109302;28;20052;-68
2023/10/24 09:43:20;;;;;;;3.58;1.98;;;;;;;;;;5105469;28;20130;-68
2023/10/24 09:45:47;;;;;;;3.95;2.30;;;;;;;;;;5103067;28;20437;-67
2023/10/24 09:48:15;;;;;;;4.40;2.17;;;;;;;;;;5104296;28;20054;-65
2023/10/24 09:50:43;;;;;;;2.47;1.60;;;;;;;;;;5106474;28;20484;-66
2023/10/24 09:53:10;;;;;;;2.33;1.67;;;;;;;;;;5102626;28;20054;-67
2023/10/24 09:55:39;;;;;;;2.72;1.90;;;;;;;;;;5096043;28;20044;-66
2023/10/24 09:58:08;;;;;;;2.10;1.55;;;;;;;;;;5103209;28;20485;-67
2023/10/24 10:00:35;;;;;;;3.08;1.70;;;;;;;;;;5099547;28;20048;-66
2023/10/24 10:03:04;;;;;;;2.75;1.70;;;;;;;;;;5099146;28;20050;-66
2023/10/24 10:05:31;;;;;;;2.47;1.55;;;;;;;;;;5107054;28;20043;-69
2023/10/24 10:08:00;;;;;;;3.80;2.00;;;;;;;;;;5092095;28;20047;-67
2023/10/24 10:10:27;;;;;;;4.25;1.77;;;;;;;;;;5097706;28;20504;-66
2023/10/24 10:13:00;;;;;;;3.30;1.65;;;;;;;;;;5097233;28;20044;-66
2023/10/24 10:15:44;;;;;;;3.72;1.73;;;;;;;;;;5098676;28;20040;-66
2023/10/24 10:18:20;;;;;;;3.53;2.00;;;;;;;;;;5097473;28;20094;-66
2023/10/24 10:20:57;;;;;;;3.70;1.95;;;;;;;;;;5102128;28;20044;-66
2023/10/24 10:23:52;;;;;;;3.38;1.58;;;;;;;;;;5093479;28;20047;-66
2023/10/24 10:26:24;;;;;;;2.72;1.85;;;;;;;;;;5099552;28;20044;-66
2023/10/24 10:29:02;;;;;;;2.60;1.80;;;;;;;;;;5094800;28;20493;-67
2023/10/24 10:31:47;;;;;;;3.38;2.20;;;;;;;;;;5093533;28;20054;-67
2023/10/24 10:34:14;;;;;;;3.75;2.67;;;;;;;;;;5098226;28;20067;-66
2023/10/24 10:36:53;;;;;;;3.92;3.00;;;;;;;;;;5093640;28;20051;-67
2023/10/24 10:39:19;;;;;;;5.38;3.20;;;;;;;;;;5100101;28;20480;-67
2023/10/24 10:41:46;;;;;;;6.30;3.78;;;;;;;;;;5094553;28;20051;-67
2023/10/24 10:44:35;;;;;;;9.18;3.80;;;;;;;;;;5095829;28;20448;-67
2023/10/24 10:47:04;;;;;;;10.05;4.47;;;;;;;;;;5092986;28;20442;-66
2023/10/24 10:49:38;;;;;;;6.13;3.95;;;;;;;;;;5093816;28;20052;-66
2023/10/24 10:52:09;;;;;;;6.75;4.30;;;;;;;;;;5095457;28;20040;-66
2023/10/24 10:54:49;;;;;;;6.15;4.00;;;;;;;;;;5101331;28;20169;-67
2023/10/24 10:57:20;;;;;;;6.63;4.65;;;;;;;;;;5096884;28;20082;-66
2023/10/24 10:59:54;;;;;;;5.63;4.00;;;;;;;;;;5099261;28;20052;-67
2023/10/24 11:02:39;;;;;;;6.68;4.60;;;;;;;;;;5105932;28;20058;-67
2023/10/24 11:05:50;;;;;;;6.63;4.53;;;;;;;;;;5096088;28;20419;-67
2023/10/24 11:08:22;;;;;;;5.55;4.25;;;;;;;;;;5101402;28;20047;-66
2023/10/24 11:10:55;;;;;;;8.13;4.70;;;;;;;;;;5100124;28;20064;-67
2023/10/24 11:13:36;;;;;;;8.32;4.85;;;;;;;;;;5103252;28;20043;-67
2023/10/24 11:16:03;;;;;;;7.07;4.88;;;;;;;;;;5099301;28;20054;-66
2023/10/24 11:18:33;;;;;;;6.40;4.90;;;;;;;;;;5097749;28;20052;-66
2023/10/24 11:21:00;;;;;;;8.45;4.72;;;;;;;;;;5097547;28;20050;-66
2023/10/24 11:23:27;;;;;;;5.68;4.18;;;;;;;;;;5091872;28;20043;-66
2023/10/24 11:25:54;;;;;;;7.47;4.47;;;;;;;;;;5104908;28;20052;-66
2023/10/24 11:28:21;;;;;;;6.78;4.10;;;;;;;;;;5104655;28;20062;-66
2023/10/24 11:30:48;;;;;;;6.47;3.88;;;;;;;;;;5104538;28;20040;-67
2023/10/24 11:33:15;;;;;;;6.47;4.15;;;;;;;;;;5106998;28;20040;-67
2023/10/24 11:35:43;;;;;;;6.57;4.10;;;;;;;;;;5102880;28;20048;-67
2023/10/24 11:38:10;;;;;;;6.32;4.70;;;;;;;;;;5092111;28;20048;-66
2023/10/24 11:40:36;;;;;;;6.88;4.43;;;;;;;;;;5099479;28;20491;-67
2023/10/24 11:43:04;;;;;;;8.65;4.43;;;;;;;;;;5095150;28;20044;-66
2023/10/24 11:45:31;;;;;;;11.88;5.50;;;;;;;;;;5098808;28;20083;-67
2023/10/24 11:47:58;;;;;;;10.18;6.20;;;;;;;;;;5108860;28;20044;-66
2023/10/24 11:50:44;;;;;;;8.10;4.85;;;;;;;;;;5109286;28;20404;-67
2023/10/24 11:53:12;;;;;;;4.85;2.90;;;;;;;;;;5102734;28;20050;-66
2023/10/24 11:55:37;;;;;;;2.55;2.13;;;;;;;;;;5095367;28;20052;-66
2023/10/24 11:58:07;;;;;;;2.60;1.90;;;;;;;;;;5097939;28;20048;-66
2023/10/24 12:00:33;;;;;;;1.67;1.33;;;;;;;;;;5099637;28;20488;-66
2023/10/24 12:03:04;;;;;;;1.77;1.35;;;;;;;;;;5097598;28;20050;-67
2023/10/24 12:05:31;;;;;;;4.40;2.00;;;;;;;;;;5095978;28;20051;-67
2023/10/24 12:08:02;;;;;;;2.40;1.50;;;;;;;;;;5096251;28;20039;-67
2023/10/24 12:10:29;;;;;;;2.35;1.33;;;;;;;;;;5103610;28;20050;-66
2023/10/24 12:12:58;;;;;;;1.67;1.40;;;;;;;;;;5095908;28;20040;-66
2023/10/24 12:15:26;;;;;;;1.30;1.20;;;;;;;;;;5104500;28;20040;-67
2023/10/24 12:17:52;;;;;;;5.70;3.90;;;;;;;;;;5100655;28;20066;-67
2023/10/24 12:20:20;;;;;;;5.60;3.08;;;;;;;;;;5103082;28;20047;-66
2023/10/24 12:22:48;;;;;;;3.63;1.95;;;;;;;;;;5101232;28;20043;-66
2023/10/24 12:25:17;;;;;;;3.45;1.83;;;;;;;;;;5098255;28;20502;-66
2023/10/24 12:27:44;;;;;;;3.13;1.80;;;;;;;;;;5102090;28;20044;-67
2023/10/24 12:30:12;;;;;;;4.32;2.15;;;;;;;;;;5101517;28;20066;-66
2023/10/24 12:32:39;;;;;;;2.83;1.77;;;;;;;;;;5097560;28;20044;-66
2023/10/24 12:35:06;;;;;;;4.22;1.90;;;;;;;;;;5093177;28;20046;-67
2023/10/24 12:37:34;;;;;;;2.22;1.60;;;;;;;;;;5098977;28;20044;-66
2023/10/24 12:40:00;;;;;;;1.92;1.67;;;;;;;;;;5096458;28;20051;-66
2023/10/24 12:42:28;;;;;;;3.15;1.60;;;;;;;;;;5098084;28;20044;-66
2023/10/24 12:44:55;;;;;;;4.15;1.40;;;;;;;;;;5103540;28;20047;-66
2023/10/24 12:47:21;;;;;;;2.03;1.55;;;;;;;;;;5099979;28;20515;-67
2023/10/24 12:49:48;;;;;;;2.92;1.83;;;;;;;;;;5105974;28;20048;-66
2023/10/24 12:52:15;;;;;;;3.00;2.30;;;;;;;;;;5094857;28;20415;-66
2023/10/24 12:54:41;;;;;;;3.03;2.00;;;;;;;;;;5104915;28;20502;-66
2023/10/24 12:57:08;;;;;;;2.40;1.77;;;;;;;;;;5090303;28;20048;-66
2023/10/24 12:59:36;;;;;;;6.43;4.55;;;;;;;;;;5103472;28;20044;-66
2023/10/24 13:02:03;;;;;;;2.08;1.58;;;;;;;;;;5095370;28;20387;-66
2023/10/24 13:04:29;;;;;;;1.70;1.23;;;;;;;;;;5103035;28;20048;-66
2023/10/24 13:06:56;;;;;;;2.30;1.30;;;;;;;;;;5101450;28;20498;-66
2023/10/24 13:09:24;;;;;;;1.20;0.80;;;;;;;;;;5098239;28;20048;-67
2023/10/24 13:11:51;;;;;;;2.65;1.38;;;;;;;;;;5095150;28;20090;-67
2023/10/24 13:14:18;;;;;;;2.85;1.40;;;;;;;;;;5094139;28;20044;-67
2023/10/24 13:16:46;;;;;;;1.13;0.60;;;;;;;;;;5098772;28;20573;-67
2023/10/24 13:19:12;;;;;;;1.20;1.10;;;;;;;;;;5101563;28;20173;-67
2023/10/24 13:21:38;;;;;;;2.05;1.27;;;;;;;;;;5103838;28;20067;-66
2023/10/24 13:24:05;;;;;;;0.80;0.70;;;;;;;;;;5102841;28;20044;-67
2023/10/24 13:26:34;;;;;;;1.42;0.70;;;;;;;;;;5101873;28;20048;-67
2023/10/24 13:29:01;;;;;;;1.08;0.70;;;;;;;;;;5087268;28;20039;-67
2023/10/24 13:31:27;;;;;;;1.40;0.80;;;;;;;;;;5095886;28;20044;-67
2023/10/24 13:33:55;;;;;;;0.80;0.70;;;;;;;;;;5098319;28;20143;-67
2023/10/24 13:36:23;;;;;;;2.72;1.73;;;;;;;;;;5104927;28;20052;-67
2023/10/24 13:38:50;;;;;;;0.80;0.80;;;;;;;;;;5099854;28;20407;-67
2023/10/24 13:41:17;;;;;;;2.65;1.02;;;;;;;;;;5100184;28;20454;-67
2023/10/24 13:43:43;;;;;;;1.02;0.88;;;;;;;;;;5099152;28;20050;-67
2023/10/24 13:46:10;;;;;;;1.05;0.63;;;;;;;;;;5100519;28;20058;-67
2023/10/24 13:48:36;;;;;;;0.95;0.90;;;;;;;;;;5107180;28;20048;-67
2023/10/24 13:51:05;;;;;;;0.80;0.60;;;;;;;;;;5103156;28;20044;-67
2023/10/24 13:53:31;;;;;;;0.57;0.52;;;;;;;;;;5100396;28;20048;-67
2023/10/24 13:55:58;;;;;;;0.63;0.55;;;;;;;;;;5097639;28;20044;-66
2023/10/24 13:58:24;;;;;;;0.93;0.60;;;;;;;;;;5102621;28;20048;-67
2023/10/24 14:00:51;;;;;;;0.50;0.50;;;;;;;;;;5099319;28;20048;-67
2023/10/24 14:03:18;;;;;;;0.40;0.40;;;;;;;;;;5094004;28;20051;-67
2023/10/24 14:05:45;;;;;;;1.08;0.70;;;;;;;;;;5104672;28;20044;-66
2023/10/24 14:08:14;;;;;;;1.70;0.73;;;;;;;;;;5103207;28;20051;-67
2023/10/24 14:10:40;;;;;;;0.65;0.50;;;;;;;;;;5103220;28;20468;-66
2023/10/24 14:13:07;;;;;;;1.20;0.60;;;;;;;;;;5100782;28;20130;-67
2023/10/24 14:15:34;;;;;;;1.95;0.57;;;;;;;;;;5108836;28;20047;-67
2023/10/24 14:18:01;;;;;;;0.57;0.43;;;;;;;;;;5097835;28;20039;-67
2023/10/24 14:20:28;;;;;;;1.98;0.88;;;;;;;;;;5105350;28;20055;-66
2023/10/24 14:22:55;;;;;;;2.10;0.85;;;;;;;;;;5105639;28;20044;-66
2023/10/24 14:25:23;;;;;;;2.25;0.75;;;;;;;;;;5104025;28;20044;-67
2023/10/24 14:27:50;;;;;;;0.93;0.70;;;;;;;;;;5097127;28;20048;-67
2023/10/24 14:30:17;;;;;;;1.23;0.80;;;;;;;;;;5108679;28;20396;-67
2023/10/24 14:32:43;;;;;;;1.95;0.77;;;;;;;;;;5104453;28;20048;-67
2023/10/24 14:35:10;;;;;;;0.75;0.75;;;;;;;;;;5109047;28;20040;-67
2023/10/24 14:37:37;;;;;;;1.85;1.40;;;;;;;;;;5100564;28;20048;-67
2023/10/24 14:40:04;;;;;;;4.30;2.00;;;;;;;;;;5109597;28;20043;-66
2023/10/24 14:42:32;;;;;;;3.80;2.00;;;;;;;;;;5110311;28;20058;-66
2023/10/24 14:44:59;;;;;;;1.25;1.13;;;;;;;;;;5109354;28;20058;-66
2023/10/24 14:47:26;;;;;;;6.75;2.50;;;;;;;;;;5104945;28;20040;-66